sensor_id;sensor_type;location;lat;lon;timestamp;pressure;altitude;pressure_sealevel;temperature;humidity
9335;BME280;4706;41.844;26.082;2022-12-20T00:01:16;103134.25;;;4.29;55.61
9335;BME280;4706;41.844;26.082;2022-12-20T00:03:42;103138.59;;;4.24;54.53
9335;BME280;4706;41.844;26.082;2022-12-20T00:06:09;103145.97;;;4.08;54.64
9335;BME280;4706;41.844;26.082;2022-12-20T00:08:36;103149.47;;;4.02;54.78
9335;BME280;4706;41.844;26.082;2022-12-20T00:11:03;103149.47;;;3.81;55.09
9335;BME280;4706;41.844;26.082;2022-12-20T00:13:29;103158.59;;;3.73;55.49
9335;BME280;4706;41.844;26.082;2022-12-20T00:16:09;103157.81;;;3.79;55.74
9335;BME280;4706;41.844;26.082;2022-12-20T00:18:35;103155.34;;;3.99;56.67
9335;BME280;4706;41.844;26.082;2022-12-20T00:21:03;103159.59;;;4.08;55.62
9335;BME280;4706;41.844;26.082;2022-12-20T00:23:29;103129.63;;;4.08;55.79
9335;BME280;4706;41.844;26.082;2022-12-20T00:28:31;103134.38;;;4.00;55.23
9335;BME280;4706;41.844;26.082;2022-12-20T00:30:57;103132.97;;;4.04;55.87
9335;BME280;4706;41.844;26.082;2022-12-20T00:33:23;103121.91;;;3.90;56.16
9335;BME280;4706;41.844;26.082;2022-12-20T00:35:48;103121.72;;;3.92;56.28
9335;BME280;4706;41.844;26.082;2022-12-20T00:38:14;103115.16;;;3.86;56.13
9335;BME280;4706;41.844;26.082;2022-12-20T00:40:39;103110.56;;;3.87;55.68
9335;BME280;4706;41.844;26.082;2022-12-20T00:43:05;103114.09;;;3.81;55.25
9335;BME280;4706;41.844;26.082;2022-12-20T00:45:30;103101.34;;;3.67;55.53
9335;BME280;4706;41.844;26.082;2022-12-20T00:47:56;103115.16;;;3.86;56.96
9335;BME280;4706;41.844;26.082;2022-12-20T00:50:21;103115.25;;;3.93;57.13
9335;BME280;4706;41.844;26.082;2022-12-20T00:52:47;103111.31;;;3.96;57.27
9335;BME280;4706;41.844;26.082;2022-12-20T00:55:12;103115.03;;;3.95;57.86
9335;BME280;4706;41.844;26.082;2022-12-20T00:57:38;103109.88;;;4.00;56.61
9335;BME280;4706;41.844;26.082;2022-12-20T01:00:04;103107.28;;;3.92;56.99
9335;BME280;4706;41.844;26.082;2022-12-20T01:02:31;103107.91;;;3.94;57.42
9335;BME280;4706;41.844;26.082;2022-12-20T01:04:56;103113.50;;;3.85;57.52
9335;BME280;4706;41.844;26.082;2022-12-20T01:07:22;103112.28;;;3.88;56.42
9335;BME280;4706;41.844;26.082;2022-12-20T01:09:49;103104.16;;;3.73;55.86
9335;BME280;4706;41.844;26.082;2022-12-20T01:12:15;103109.13;;;3.70;56.67
9335;BME280;4706;41.844;26.082;2022-12-20T01:14:40;103107.13;;;3.78;56.08
9335;BME280;4706;41.844;26.082;2022-12-20T01:17:06;103090.97;;;3.55;55.85
9335;BME280;4706;41.844;26.082;2022-12-20T01:19:31;103087.44;;;3.40;57.46
9335;BME280;4706;41.844;26.082;2022-12-20T01:21:57;103085.47;;;3.34;57.93
9335;BME280;4706;41.844;26.082;2022-12-20T01:24:23;103083.81;;;3.33;58.87
9335;BME280;4706;41.844;26.082;2022-12-20T01:26:48;103080.25;;;3.32;59.62
9335;BME280;4706;41.844;26.082;2022-12-20T01:29:14;103074.31;;;3.44;58.04
9335;BME280;4706;41.844;26.082;2022-12-20T01:31:40;103059.78;;;3.36;58.23
9335;BME280;4706;41.844;26.082;2022-12-20T01:34:05;103058.66;;;3.31;59.40
9335;BME280;4706;41.844;26.082;2022-12-20T01:36:33;103054.84;;;3.25;59.44
9335;BME280;4706;41.844;26.082;2022-12-20T01:39:02;103040.06;;;3.13;59.45
9335;BME280;4706;41.844;26.082;2022-12-20T01:41:29;103033.31;;;3.09;59.18
9335;BME280;4706;41.844;26.082;2022-12-20T01:44:00;103035.13;;;3.23;59.07
9335;BME280;4706;41.844;26.082;2022-12-20T01:46:28;103044.66;;;3.12;60.61
9335;BME280;4706;41.844;26.082;2022-12-20T01:51:24;103028.41;;;3.04;59.89
9335;BME280;4706;41.844;26.082;2022-12-20T01:53:55;103032.19;;;3.03;61.94
9335;BME280;4706;41.844;26.082;2022-12-20T01:56:22;103032.44;;;3.08;60.66
9335;BME280;4706;41.844;26.082;2022-12-20T01:58:50;103022.97;;;3.04;61.23
9335;BME280;4706;41.844;26.082;2022-12-20T02:01:17;103024.78;;;2.97;60.78
9335;BME280;4706;41.844;26.082;2022-12-20T02:03:43;103023.47;;;2.93;60.24
9335;BME280;4706;41.844;26.082;2022-12-20T02:06:20;103045.69;;;2.97;60.54
9335;BME280;4706;41.844;26.082;2022-12-20T02:08:47;103056.00;;;3.01;61.67
9335;BME280;4706;41.844;26.082;2022-12-20T02:16:16;103033.47;;;3.07;61.70
9335;BME280;4706;41.844;26.082;2022-12-20T02:28:06;103014.56;;;2.99;60.88
9335;BME280;4706;41.844;26.082;2022-12-20T02:30:39;103021.13;;;3.05;59.99
9335;BME280;4706;41.844;26.082;2022-12-20T02:33:09;103020.84;;;3.00;59.75
9335;BME280;4706;41.844;26.082;2022-12-20T02:35:37;103028.44;;;2.89;60.19
9335;BME280;4706;41.844;26.082;2022-12-20T02:40:52;103022.81;;;2.91;60.88
9335;BME280;4706;41.844;26.082;2022-12-20T02:43:20;103003.81;;;2.76;61.72
9335;BME280;4706;41.844;26.082;2022-12-20T02:46:10;102992.84;;;2.70;62.00
9335;BME280;4706;41.844;26.082;2022-12-20T02:48:37;102994.94;;;2.67;62.39
9335;BME280;4706;41.844;26.082;2022-12-20T02:51:04;103008.50;;;2.67;62.58
9335;BME280;4706;41.844;26.082;2022-12-20T02:53:32;102987.50;;;2.61;62.42
9335;BME280;4706;41.844;26.082;2022-12-20T02:56:02;102992.84;;;2.55;63.87
9335;BME280;4706;41.844;26.082;2022-12-20T03:00:58;102990.97;;;2.11;63.53
9335;BME280;4706;41.844;26.082;2022-12-20T03:03:31;103008.28;;;2.25;63.64
9335;BME280;4706;41.844;26.082;2022-12-20T03:05:57;103006.50;;;2.17;63.93
9335;BME280;4706;41.844;26.082;2022-12-20T03:08:23;103012.03;;;2.24;63.19
9335;BME280;4706;41.844;26.082;2022-12-20T03:10:50;102994.59;;;2.18;63.52
9335;BME280;4706;41.844;26.082;2022-12-20T03:13:16;103004.25;;;2.21;63.03
9335;BME280;4706;41.844;26.082;2022-12-20T03:15:42;103007.19;;;2.19;63.16
9335;BME280;4706;41.844;26.082;2022-12-20T03:18:08;102997.81;;;2.36;62.69
9335;BME280;4706;41.844;26.082;2022-12-20T03:20:34;103002.38;;;2.06;62.47
9335;BME280;4706;41.844;26.082;2022-12-20T03:23:00;103001.47;;;2.29;62.70
9335;BME280;4706;41.844;26.082;2022-12-20T03:25:26;102993.78;;;2.32;62.17
9335;BME280;4706;41.844;26.082;2022-12-20T03:27:51;103004.47;;;2.34;61.90
9335;BME280;4706;41.844;26.082;2022-12-20T03:30:17;102993.75;;;2.03;62.66
9335;BME280;4706;41.844;26.082;2022-12-20T03:32:43;102991.34;;;2.23;62.92
9335;BME280;4706;41.844;26.082;2022-12-20T03:35:08;102991.13;;;2.09;63.06
9335;BME280;4706;41.844;26.082;2022-12-20T03:37:34;102994.50;;;1.97;63.27
9335;BME280;4706;41.844;26.082;2022-12-20T03:40:00;102981.28;;;1.93;64.28
9335;BME280;4706;41.844;26.082;2022-12-20T03:42:26;103002.69;;;2.11;63.98
9335;BME280;4706;41.844;26.082;2022-12-20T03:44:52;103005.41;;;2.26;64.12
9335;BME280;4706;41.844;26.082;2022-12-20T03:47:17;102991.16;;;2.24;63.01
9335;BME280;4706;41.844;26.082;2022-12-20T03:49:42;103005.47;;;2.18;62.66
9335;BME280;4706;41.844;26.082;2022-12-20T03:52:11;102999.03;;;2.19;62.79
9335;BME280;4706;41.844;26.082;2022-12-20T03:54:37;103014.41;;;2.41;62.83
9335;BME280;4706;41.844;26.082;2022-12-20T03:57:03;103021.31;;;2.44;62.92
9335;BME280;4706;41.844;26.082;2022-12-20T03:59:28;103020.78;;;2.49;62.49
9335;BME280;4706;41.844;26.082;2022-12-20T04:01:53;103019.28;;;2.61;62.65
9335;BME280;4706;41.844;26.082;2022-12-20T04:04:19;103010.09;;;2.62;62.95
9335;BME280;4706;41.844;26.082;2022-12-20T04:06:44;103008.78;;;2.58;63.13
9335;BME280;4706;41.844;26.082;2022-12-20T04:09:10;103000.25;;;2.61;62.65
9335;BME280;4706;41.844;26.082;2022-12-20T04:11:36;103010.28;;;2.60;62.50
9335;BME280;4706;41.844;26.082;2022-12-20T04:14:03;103004.50;;;2.63;62.48
9335;BME280;4706;41.844;26.082;2022-12-20T04:16:29;103009.25;;;2.61;62.22
9335;BME280;4706;41.844;26.082;2022-12-20T04:18:55;103008.78;;;2.58;62.39
9335;BME280;4706;41.844;26.082;2022-12-20T04:21:26;103018.91;;;2.34;62.79
9335;BME280;4706;41.844;26.082;2022-12-20T04:23:52;103007.25;;;2.11;62.52
9335;BME280;4706;41.844;26.082;2022-12-20T04:26:18;103019.50;;;2.07;63.13
9335;BME280;4706;41.844;26.082;2022-12-20T04:28:44;103006.94;;;2.06;63.40
9335;BME280;4706;41.844;26.082;2022-12-20T04:31:09;103013.50;;;1.97;63.67
9335;BME280;4706;41.844;26.082;2022-12-20T04:33:35;103002.09;;;2.01;64.28
9335;BME280;4706;41.844;26.082;2022-12-20T04:36:00;103008.84;;;2.20;64.93
9335;BME280;4706;41.844;26.082;2022-12-20T04:38:26;103010.53;;;2.21;64.16
9335;BME280;4706;41.844;26.082;2022-12-20T04:40:52;102996.09;;;2.06;64.28
9335;BME280;4706;41.844;26.082;2022-12-20T04:43:19;103009.22;;;2.17;64.54
9335;BME280;4706;41.844;26.082;2022-12-20T04:45:49;102995.38;;;2.12;64.17
9335;BME280;4706;41.844;26.082;2022-12-20T04:48:16;102988.50;;;2.01;64.76
9335;BME280;4706;41.844;26.082;2022-12-20T04:50:42;102983.91;;;2.02;65.30
9335;BME280;4706;41.844;26.082;2022-12-20T04:53:10;102977.94;;;2.06;65.47
9335;BME280;4706;41.844;26.082;2022-12-20T04:55:54;102979.44;;;2.09;65.83
9335;BME280;4706;41.844;26.082;2022-12-20T04:58:20;102990.50;;;2.07;66.08
9335;BME280;4706;41.844;26.082;2022-12-20T05:00:46;102994.31;;;2.13;66.74
9335;BME280;4706;41.844;26.082;2022-12-20T05:03:11;102991.44;;;2.14;66.40
9335;BME280;4706;41.844;26.082;2022-12-20T05:05:37;102987.22;;;2.12;65.35
9335;BME280;4706;41.844;26.082;2022-12-20T05:08:02;102972.94;;;1.95;65.89
9335;BME280;4706;41.844;26.082;2022-12-20T05:10:28;102980.44;;;1.93;65.48
9335;BME280;4706;41.844;26.082;2022-12-20T05:12:54;102987.47;;;2.02;66.13
9335;BME280;4706;41.844;26.082;2022-12-20T05:15:19;102984.75;;;2.02;64.22
9335;BME280;4706;41.844;26.082;2022-12-20T05:17:45;102996.78;;;2.08;65.76
9335;BME280;4706;41.844;26.082;2022-12-20T05:20:11;102990.56;;;1.99;65.88
9335;BME280;4706;41.844;26.082;2022-12-20T05:22:37;102993.53;;;1.89;64.71
9335;BME280;4706;41.844;26.082;2022-12-20T05:25:21;102991.19;;;1.86;64.99
9335;BME280;4706;41.844;26.082;2022-12-20T05:28:05;102984.38;;;1.90;65.14
9335;BME280;4706;41.844;26.082;2022-12-20T05:30:31;102984.75;;;2.02;64.43
9335;BME280;4706;41.844;26.082;2022-12-20T05:32:56;102980.06;;;1.81;64.84
9335;BME280;4706;41.844;26.082;2022-12-20T05:35:22;102997.38;;;1.95;64.51
9335;BME280;4706;41.844;26.082;2022-12-20T05:37:47;102986.16;;;1.98;64.33
9335;BME280;4706;41.844;26.082;2022-12-20T05:40:13;102961.81;;;1.90;63.78
9335;BME280;4706;41.844;26.082;2022-12-20T05:42:38;102969.47;;;1.86;64.24
9335;BME280;4706;41.844;26.082;2022-12-20T05:45:05;102973.50;;;1.90;65.39
9335;BME280;4706;41.844;26.082;2022-12-20T05:47:30;102981.47;;;2.07;65.07
9335;BME280;4706;41.844;26.082;2022-12-20T05:50:02;102982.63;;;2.12;65.64
9335;BME280;4706;41.844;26.082;2022-12-20T05:52:28;102979.72;;;2.14;64.84
9335;BME280;4706;41.844;26.082;2022-12-20T05:54:54;102976.63;;;2.17;65.43
9335;BME280;4706;41.844;26.082;2022-12-20T05:57:20;102977.31;;;2.19;64.63
9335;BME280;4706;41.844;26.082;2022-12-20T05:59:46;102974.97;;;2.31;64.30
9335;BME280;4706;41.844;26.082;2022-12-20T06:02:12;102961.19;;;2.32;64.37
9335;BME280;4706;41.844;26.082;2022-12-20T06:04:37;102965.53;;;2.41;64.59
9335;BME280;4706;41.844;26.082;2022-12-20T06:07:04;102971.69;;;2.35;63.96
9335;BME280;4706;41.844;26.082;2022-12-20T06:09:33;102973.75;;;2.48;63.46
9335;BME280;4706;41.844;26.082;2022-12-20T06:11:58;102974.66;;;2.55;63.32
9335;BME280;4706;41.844;26.082;2022-12-20T06:14:24;102976.75;;;2.68;62.24
9335;BME280;4706;41.844;26.082;2022-12-20T06:16:50;102956.31;;;2.57;62.10
9335;BME280;4706;41.844;26.082;2022-12-20T06:19:17;102978.19;;;2.85;61.81
9335;BME280;4706;41.844;26.082;2022-12-20T06:21:42;102980.63;;;2.95;63.35
9335;BME280;4706;41.844;26.082;2022-12-20T06:24:08;102986.28;;;2.94;63.37
9335;BME280;4706;41.844;26.082;2022-12-20T06:26:34;102983.69;;;3.07;63.70
9335;BME280;4706;41.844;26.082;2022-12-20T06:29:03;102984.03;;;3.19;63.83
9335;BME280;4706;41.844;26.082;2022-12-20T06:31:32;102990.22;;;3.27;62.58
9335;BME280;4706;41.844;26.082;2022-12-20T06:33:57;102989.75;;;3.45;61.47
9335;BME280;4706;41.844;26.082;2022-12-20T06:36:23;102988.47;;;3.62;60.17
9335;BME280;4706;41.844;26.082;2022-12-20T06:38:49;102991.66;;;3.66;61.17
9335;BME280;4706;41.844;26.082;2022-12-20T06:41:14;102983.09;;;3.69;61.05
9335;BME280;4706;41.844;26.082;2022-12-20T06:43:40;102972.69;;;3.79;60.14
9335;BME280;4706;41.844;26.082;2022-12-20T06:46:05;102967.97;;;3.88;60.66
9335;BME280;4706;41.844;26.082;2022-12-20T06:48:31;102962.16;;;3.98;60.15
9335;BME280;4706;41.844;26.082;2022-12-20T06:50:56;102955.38;;;4.15;58.63
9335;BME280;4706;41.844;26.082;2022-12-20T06:53:22;102964.28;;;4.30;59.84
9335;BME280;4706;41.844;26.082;2022-12-20T06:55:48;102961.22;;;4.47;58.28
9335;BME280;4706;41.844;26.082;2022-12-20T06:58:15;102945.69;;;4.47;58.56
9335;BME280;4706;41.844;26.082;2022-12-20T07:00:40;102951.94;;;4.34;57.30
9335;BME280;4706;41.844;26.082;2022-12-20T07:03:06;102955.00;;;4.18;58.12
9335;BME280;4706;41.844;26.082;2022-12-20T07:05:32;102962.19;;;4.32;58.45
9335;BME280;4706;41.844;26.082;2022-12-20T07:07:57;102960.75;;;4.36;59.90
9335;BME280;4706;41.844;26.082;2022-12-20T07:10:22;102960.50;;;4.73;58.21
9335;BME280;4706;41.844;26.082;2022-12-20T07:12:48;102952.41;;;4.86;58.26
9335;BME280;4706;41.844;26.082;2022-12-20T07:15:14;102947.84;;;5.13;59.51
9335;BME280;4706;41.844;26.082;2022-12-20T07:17:40;102942.66;;;5.38;55.69
9335;BME280;4706;41.844;26.082;2022-12-20T07:20:06;102938.66;;;5.27;56.57
9335;BME280;4706;41.844;26.082;2022-12-20T07:22:32;102934.88;;;5.28;57.18
9335;BME280;4706;41.844;26.082;2022-12-20T07:24:58;102931.31;;;5.48;57.43
9335;BME280;4706;41.844;26.082;2022-12-20T07:27:24;102930.69;;;5.59;56.63
9335;BME280;4706;41.844;26.082;2022-12-20T07:29:50;102926.94;;;5.73;55.68
9335;BME280;4706;41.844;26.082;2022-12-20T07:32:15;102922.94;;;5.69;54.54
9335;BME280;4706;41.844;26.082;2022-12-20T07:34:41;102926.31;;;5.65;55.44
9335;BME280;4706;41.844;26.082;2022-12-20T07:37:06;102937.22;;;5.78;55.85
9335;BME280;4706;41.844;26.082;2022-12-20T07:39:33;102941.25;;;6.02;55.16
9335;BME280;4706;41.844;26.082;2022-12-20T07:41:59;102940.19;;;6.03;55.88
9335;BME280;4706;41.844;26.082;2022-12-20T07:44:24;102937.16;;;6.31;55.99
9335;BME280;4706;41.844;26.082;2022-12-20T07:46:50;102918.50;;;6.08;54.32
9335;BME280;4706;41.844;26.082;2022-12-20T07:49:15;102919.75;;;6.05;54.70
9335;BME280;4706;41.844;26.082;2022-12-20T07:51:44;102932.53;;;6.31;56.55
9335;BME280;4706;41.844;26.082;2022-12-20T07:54:20;102926.78;;;6.60;54.72
9335;BME280;4706;41.844;26.082;2022-12-20T07:56:49;102916.34;;;6.37;53.97
9335;BME280;4706;41.844;26.082;2022-12-20T07:59:18;102915.72;;;6.35;54.59
9335;BME280;4706;41.844;26.082;2022-12-20T08:01:45;102926.88;;;6.33;54.03
9335;BME280;4706;41.844;26.082;2022-12-20T08:04:14;102920.56;;;6.32;55.85
9335;BME280;4706;41.844;26.082;2022-12-20T08:06:41;102927.22;;;6.56;54.43
9335;BME280;4706;41.844;26.082;2022-12-20T08:09:08;102918.09;;;6.69;55.77
9335;BME280;4706;41.844;26.082;2022-12-20T08:11:36;102905.88;;;6.78;55.09
9335;BME280;4706;41.844;26.082;2022-12-20T08:14:03;102911.84;;;7.00;55.28
9335;BME280;4706;41.844;26.082;2022-12-20T08:16:31;102913.78;;;7.25;54.14
9335;BME280;4706;41.844;26.082;2022-12-20T08:18:56;102894.19;;;7.28;53.46
9335;BME280;4706;41.844;26.082;2022-12-20T08:21:22;102897.06;;;7.40;52.55
9335;BME280;4706;41.844;26.082;2022-12-20T08:23:47;102887.88;;;7.27;54.48
9335;BME280;4706;41.844;26.082;2022-12-20T08:26:13;102886.81;;;7.28;53.37
9335;BME280;4706;41.844;26.082;2022-12-20T08:28:39;102883.38;;;7.08;53.97
9335;BME280;4706;41.844;26.082;2022-12-20T08:31:06;102884.69;;;6.99;54.92
9335;BME280;4706;41.844;26.082;2022-12-20T08:33:33;102882.59;;;7.01;54.84
9335;BME280;4706;41.844;26.082;2022-12-20T08:36:00;102887.75;;;7.16;55.55
9335;BME280;4706;41.844;26.082;2022-12-20T08:38:30;102876.81;;;7.16;55.25
9335;BME280;4706;41.844;26.082;2022-12-20T08:41:10;102865.88;;;7.16;55.03
9335;BME280;4706;41.844;26.082;2022-12-20T08:43:36;102867.25;;;7.25;54.98
9335;BME280;4706;41.844;26.082;2022-12-20T08:46:02;102870.19;;;7.30;55.03
9335;BME280;4706;41.844;26.082;2022-12-20T08:48:28;102837.69;;;7.09;56.04
9335;BME280;4706;41.844;26.082;2022-12-20T08:50:58;102863.53;;;7.19;55.42
9335;BME280;4706;41.844;26.082;2022-12-20T08:53:26;102862.22;;;7.22;55.15
9335;BME280;4706;41.844;26.082;2022-12-20T08:55:52;102860.56;;;7.46;55.58
9335;BME280;4706;41.844;26.082;2022-12-20T08:58:18;102852.47;;;7.58;54.62
9335;BME280;4706;41.844;26.082;2022-12-20T09:00:45;102850.53;;;7.83;54.11
9335;BME280;4706;41.844;26.082;2022-12-20T09:03:11;102842.72;;;8.05;55.24
9335;BME280;4706;41.844;26.082;2022-12-20T09:05:47;102828.19;;;8.35;53.31
9335;BME280;4706;41.844;26.082;2022-12-20T09:08:16;102822.38;;;8.61;53.07
9335;BME280;4706;41.844;26.082;2022-12-20T09:10:42;102818.53;;;8.81;51.61
9335;BME280;4706;41.844;26.082;2022-12-20T09:13:09;102817.06;;;8.66;51.43
9335;BME280;4706;41.844;26.082;2022-12-20T09:15:35;102808.66;;;8.61;52.98
9335;BME280;4706;41.844;26.082;2022-12-20T09:18:01;102807.72;;;8.97;51.79
9335;BME280;4706;41.844;26.082;2022-12-20T09:20:28;102807.53;;;9.22;51.51
9335;BME280;4706;41.844;26.082;2022-12-20T09:22:53;102806.94;;;9.44;51.18
9335;BME280;4706;41.844;26.082;2022-12-20T09:25:19;102803.84;;;9.52;49.41
9335;BME280;4706;41.844;26.082;2022-12-20T09:27:44;102781.16;;;9.57;50.91
9335;BME280;4706;41.844;26.082;2022-12-20T09:30:10;102788.19;;;9.76;49.58
9335;BME280;4706;41.844;26.082;2022-12-20T09:32:35;102782.06;;;9.86;49.48
9335;BME280;4706;41.844;26.082;2022-12-20T09:35:02;102783.84;;;9.92;48.41
9335;BME280;4706;41.844;26.082;2022-12-20T09:37:31;102776.78;;;9.96;49.36
9335;BME280;4706;41.844;26.082;2022-12-20T09:39:57;102771.38;;;10.13;49.13
9335;BME280;4706;41.844;26.082;2022-12-20T09:42:25;102771.09;;;10.26;48.71
9335;BME280;4706;41.844;26.082;2022-12-20T09:44:51;102760.91;;;10.38;47.98
9335;BME280;4706;41.844;26.082;2022-12-20T09:47:23;102767.13;;;10.22;47.64
9335;BME280;4706;41.844;26.082;2022-12-20T09:49:54;102753.16;;;10.24;48.40
9335;BME280;4706;41.844;26.082;2022-12-20T09:52:50;102764.72;;;10.37;47.90
9335;BME280;4706;41.844;26.082;2022-12-20T09:55:30;102759.91;;;10.44;47.58
9335;BME280;4706;41.844;26.082;2022-12-20T09:58:16;102741.81;;;10.20;48.06
9335;BME280;4706;41.844;26.082;2022-12-20T10:00:47;102746.47;;;10.19;48.10
9335;BME280;4706;41.844;26.082;2022-12-20T10:03:40;102738.50;;;10.47;48.21
9335;BME280;4706;41.844;26.082;2022-12-20T10:08:58;102730.25;;;10.63;47.70
9335;BME280;4706;41.844;26.082;2022-12-20T10:16:54;102713.66;;;10.58;48.05
9335;BME280;4706;41.844;26.082;2022-12-20T10:22:21;102689.66;;;10.87;46.02
9335;BME280;4706;41.844;26.082;2022-12-20T10:25:17;102694.97;;;11.11;46.56
9335;BME280;4706;41.844;26.082;2022-12-20T10:27:44;102689.41;;;11.28;46.15
9335;BME280;4706;41.844;26.082;2022-12-20T10:30:17;102694.81;;;11.39;46.62
9335;BME280;4706;41.844;26.082;2022-12-20T10:32:49;102694.31;;;11.42;47.50
9335;BME280;4706;41.844;26.082;2022-12-20T10:35:25;102688.69;;;11.54;45.44
9335;BME280;4706;41.844;26.082;2022-12-20T10:37:58;102681.34;;;11.21;45.43
9335;BME280;4706;41.844;26.082;2022-12-20T10:40:27;102681.59;;;11.19;46.54
9335;BME280;4706;41.844;26.082;2022-12-20T10:42:53;102674.09;;;11.15;47.59
9335;BME280;4706;41.844;26.082;2022-12-20T10:47:49;102675.59;;;11.23;47.06
9335;BME280;4706;41.844;26.082;2022-12-20T10:50:20;102669.06;;;11.29;46.87
9335;BME280;4706;41.844;26.082;2022-12-20T10:53:15;102665.38;;;11.23;46.52
9335;BME280;4706;41.844;26.082;2022-12-20T10:55:43;102656.41;;;10.94;47.06
9335;BME280;4706;41.844;26.082;2022-12-20T10:58:21;102666.97;;;10.80;47.61
9335;BME280;4706;41.844;26.082;2022-12-20T11:01:14;102664.81;;;10.65;48.40
9335;BME280;4706;41.844;26.082;2022-12-20T11:06:16;102655.13;;;10.63;48.92
9335;BME280;4706;41.844;26.082;2022-12-20T11:08:42;102644.78;;;10.53;48.41
9335;BME280;4706;41.844;26.082;2022-12-20T11:11:20;102649.16;;;10.37;48.84
9335;BME280;4706;41.844;26.082;2022-12-20T11:13:47;102640.59;;;10.05;49.08
9335;BME280;4706;41.844;26.082;2022-12-20T11:16:35;102626.03;;;10.05;49.45
9335;BME280;4706;41.844;26.082;2022-12-20T11:19:35;102631.25;;;9.78;50.20
9335;BME280;4706;41.844;26.082;2022-12-20T11:30:38;102596.97;;;9.52;52.51
9335;BME280;4706;41.844;26.082;2022-12-20T11:38:33;102598.28;;;9.49;52.97
9335;BME280;4706;41.844;26.082;2022-12-20T11:52:47;102572.16;;;9.75;52.66
9335;BME280;4706;41.844;26.082;2022-12-20T11:55:26;102568.03;;;9.89;53.52
9335;BME280;4706;41.844;26.082;2022-12-20T11:58:14;102561.50;;;9.95;53.29
9335;BME280;4706;41.844;26.082;2022-12-20T12:00:48;102565.06;;;9.79;53.55
9335;BME280;4706;41.844;26.082;2022-12-20T12:03:36;102554.91;;;9.80;53.55
9335;BME280;4706;41.844;26.082;2022-12-20T12:06:21;102554.50;;;9.88;53.93
9335;BME280;4706;41.844;26.082;2022-12-20T12:11:26;102544.53;;;9.98;53.10
9335;BME280;4706;41.844;26.082;2022-12-20T12:13:54;102544.72;;;10.09;53.08
9335;BME280;4706;41.844;26.082;2022-12-20T12:16:28;102550.22;;;10.09;52.97
9335;BME280;4706;41.844;26.082;2022-12-20T12:18:57;102548.03;;;10.11;53.51
9335;BME280;4706;41.844;26.082;2022-12-20T12:21:26;102545.75;;;10.08;53.05
9335;BME280;4706;41.844;26.082;2022-12-20T12:26:37;102539.44;;;10.07;52.63
9335;BME280;4706;41.844;26.082;2022-12-20T12:45:28;102527.78;;;11.11;49.39
9335;BME280;4706;41.844;26.082;2022-12-20T12:48:01;102498.00;;;10.86;49.45
9335;BME280;4706;41.844;26.082;2022-12-20T12:50:39;102529.06;;;11.04;49.54
9335;BME280;4706;41.844;26.082;2022-12-20T12:53:14;102527.47;;;11.08;50.26
9335;BME280;4706;41.844;26.082;2022-12-20T12:55:48;102536.00;;;11.06;49.51
9335;BME280;4706;41.844;26.082;2022-12-20T13:03:16;102538.78;;;10.89;49.54
9335;BME280;4706;41.844;26.082;2022-12-20T13:19:34;102500.53;;;11.10;50.42
9335;BME280;4706;41.844;26.082;2022-12-20T13:25:02;102499.56;;;10.99;50.16
9335;BME280;4706;41.844;26.082;2022-12-20T13:43:04;102477.97;;;10.69;52.31
9335;BME280;4706;41.844;26.082;2022-12-20T13:45:31;102472.59;;;10.57;53.06
9335;BME280;4706;41.844;26.082;2022-12-20T13:48:00;102472.72;;;10.45;52.57
9335;BME280;4706;41.844;26.082;2022-12-20T13:50:29;102468.25;;;10.44;53.58
9335;BME280;4706;41.844;26.082;2022-12-20T13:52:57;102461.53;;;10.35;53.24
9335;BME280;4706;41.844;26.082;2022-12-20T13:55:41;102459.59;;;10.19;54.39
9335;BME280;4706;41.844;26.082;2022-12-20T13:58:15;102454.31;;;10.12;54.33
9335;BME280;4706;41.844;26.082;2022-12-20T14:00:43;102461.94;;;10.10;54.40
9335;BME280;4706;41.844;26.082;2022-12-20T14:03:29;102459.91;;;10.01;54.82
9335;BME280;4706;41.844;26.082;2022-12-20T14:05:58;102450.97;;;9.93;55.35
9335;BME280;4706;41.844;26.082;2022-12-20T14:08:38;102451.06;;;9.82;55.28
9335;BME280;4706;41.844;26.082;2022-12-20T14:11:13;102458.56;;;9.86;55.56
9335;BME280;4706;41.844;26.082;2022-12-20T14:13:40;102441.97;;;9.81;55.67
9335;BME280;4706;41.844;26.082;2022-12-20T14:16:13;102448.56;;;9.80;56.17
9335;BME280;4706;41.844;26.082;2022-12-20T14:18:39;102447.31;;;9.71;56.24
9335;BME280;4706;41.844;26.082;2022-12-20T14:21:06;102452.88;;;9.59;57.11
9335;BME280;4706;41.844;26.082;2022-12-20T14:23:39;102434.28;;;9.49;56.81
9335;BME280;4706;41.844;26.082;2022-12-20T14:26:10;102449.28;;;9.42;57.36
9335;BME280;4706;41.844;26.082;2022-12-20T14:28:39;102445.84;;;9.35;57.46
9335;BME280;4706;41.844;26.082;2022-12-20T14:31:24;102447.50;;;9.36;57.39
9335;BME280;4706;41.844;26.082;2022-12-20T14:36:39;102441.31;;;9.29;57.41
9335;BME280;4706;41.844;26.082;2022-12-20T14:39:25;102440.13;;;9.08;58.15
9335;BME280;4706;41.844;26.082;2022-12-20T14:41:58;102434.38;;;9.09;58.66
9335;BME280;4706;41.844;26.082;2022-12-20T14:44:26;102431.53;;;9.04;58.96
9335;BME280;4706;41.844;26.082;2022-12-20T14:46:55;102431.75;;;9.03;59.26
9335;BME280;4706;41.844;26.082;2022-12-20T14:49:24;102421.19;;;8.94;59.19
9335;BME280;4706;41.844;26.082;2022-12-20T14:52:04;102442.31;;;8.94;58.76
9335;BME280;4706;41.844;26.082;2022-12-20T14:54:31;102435.91;;;8.88;59.17
9335;BME280;4706;41.844;26.082;2022-12-20T14:56:57;102439.13;;;8.85;58.87
9335;BME280;4706;41.844;26.082;2022-12-20T14:59:28;102431.16;;;8.72;59.20
9335;BME280;4706;41.844;26.082;2022-12-20T15:01:54;102448.56;;;8.78;59.38
9335;BME280;4706;41.844;26.082;2022-12-20T15:04:33;102439.66;;;8.70;58.78
9335;BME280;4706;41.844;26.082;2022-12-20T15:07:00;102440.59;;;8.64;59.54
9335;BME280;4706;41.844;26.082;2022-12-20T15:09:26;102448.72;;;8.59;59.78
9335;BME280;4706;41.844;26.082;2022-12-20T15:11:54;102446.47;;;8.56;60.09
9335;BME280;4706;41.844;26.082;2022-12-20T15:14:32;102452.66;;;8.63;59.65
9335;BME280;4706;41.844;26.082;2022-12-20T15:17:02;102452.19;;;8.66;59.52
9335;BME280;4706;41.844;26.082;2022-12-20T15:19:27;102462.69;;;8.58;59.38
9335;BME280;4706;41.844;26.082;2022-12-20T15:21:55;102453.75;;;8.50;59.51
9335;BME280;4706;41.844;26.082;2022-12-20T15:24:26;102461.25;;;8.55;59.92
9335;BME280;4706;41.844;26.082;2022-12-20T15:26:52;102451.84;;;8.51;59.89